sensor_id;sensor_type;location;lat;lon;timestamp;temperature;humidity
68804;SHT31;55787;52.678;13.314;2023-03-01T00:00:09;-5.07;91.49
68804;SHT31;55787;52.678;13.314;2023-03-01T00:02:37;-5.10;91.74
68804;SHT31;55787;52.678;13.314;2023-03-01T00:05:04;-5.10;91.82
68804;SHT31;55787;52.678;13.314;2023-03-01T00:07:31;-5.10;91.96
68804;SHT31;55787;52.678;13.314;2023-03-01T00:09:57;-5.11;91.81
68804;SHT31;55787;52.678;13.314;2023-03-01T00:12:24;-5.11;91.67
68804;SHT31;55787;52.678;13.314;2023-03-01T00:14:50;-5.14;91.46
68804;SHT31;55787;52.678;13.314;2023-03-01T00:17:17;-5.18;91.48
68804;SHT31;55787;52.678;13.314;2023-03-01T00:19:44;-5.21;91.47
68804;SHT31;55787;52.678;13.314;2023-03-01T00:22:10;-5.24;91.50
68804;SHT31;55787;52.678;13.314;2023-03-01T00:24:37;-5.27;91.52
68804;SHT31;55787;52.678;13.314;2023-03-01T00:27:04;-5.28;91.70
68804;SHT31;55787;52.678;13.314;2023-03-01T00:29:30;-5.28;92.02
68804;SHT31;55787;52.678;13.314;2023-03-01T00:31:57;-5.30;92.25
68804;SHT31;55787;52.678;13.314;2023-03-01T00:34:23;-5.31;92.28
68804;SHT31;55787;52.678;13.314;2023-03-01T00:36:50;-5.37;92.15
68804;SHT31;55787;52.678;13.314;2023-03-01T00:39:17;-5.39;92.25
68804;SHT31;55787;52.678;13.314;2023-03-01T00:41:43;-5.39;92.22
68804;SHT31;55787;52.678;13.314;2023-03-01T00:44:11;-5.42;92.27
68804;SHT31;55787;52.678;13.314;2023-03-01T00:46:38;-5.42;92.26
68804;SHT31;55787;52.678;13.314;2023-03-01T00:49:05;-5.42;92.26
68804;SHT31;55787;52.678;13.314;2023-03-01T00:51:32;-5.45;92.08
68804;SHT31;55787;52.678;13.314;2023-03-01T00:54:01;-5.48;92.13
68804;SHT31;55787;52.678;13.314;2023-03-01T00:56:29;-5.48;92.30
68804;SHT31;55787;52.678;13.314;2023-03-01T00:58:56;-5.47;92.46
68804;SHT31;55787;52.678;13.314;2023-03-01T01:01:26;-5.48;92.62
68804;SHT31;55787;52.678;13.314;2023-03-01T01:04:02;-5.51;92.74
68804;SHT31;55787;52.678;13.314;2023-03-01T01:06:31;-5.54;92.40
68804;SHT31;55787;52.678;13.314;2023-03-01T01:08:59;-5.54;92.33
68804;SHT31;55787;52.678;13.314;2023-03-01T01:11:28;-5.58;92.35
68804;SHT31;55787;52.678;13.314;2023-03-01T01:13:56;-5.61;92.69
68804;SHT31;55787;52.678;13.314;2023-03-01T01:16:24;-5.61;92.79
68804;SHT31;55787;52.678;13.314;2023-03-01T01:18:51;-5.64;92.80
68804;SHT31;55787;52.678;13.314;2023-03-01T01:21:21;-5.64;92.80
68804;SHT31;55787;52.678;13.314;2023-03-01T01:23:48;-5.68;92.75
68804;SHT31;55787;52.678;13.314;2023-03-01T01:26:21;-5.71;92.70
68804;SHT31;55787;52.678;13.314;2023-03-01T01:28:48;-5.72;92.57
68804;SHT31;55787;52.678;13.314;2023-03-01T01:31:15;-5.72;92.55
68804;SHT31;55787;52.678;13.314;2023-03-01T01:33:42;-5.74;92.62
68804;SHT31;55787;52.678;13.314;2023-03-01T01:36:09;-5.74;92.78
68804;SHT31;55787;52.678;13.314;2023-03-01T01:38:37;-5.76;92.89
68804;SHT31;55787;52.678;13.314;2023-03-01T01:41:07;-5.75;93.08
68804;SHT31;55787;52.678;13.314;2023-03-01T01:43:37;-5.75;93.02
68804;SHT31;55787;52.678;13.314;2023-03-01T01:46:06;-5.78;92.99
68804;SHT31;55787;52.678;13.314;2023-03-01T01:48:45;-5.79;92.91
68804;SHT31;55787;52.678;13.314;2023-03-01T01:51:17;-5.83;93.06
68804;SHT31;55787;52.678;13.314;2023-03-01T01:53:48;-5.83;93.23
68804;SHT31;55787;52.678;13.314;2023-03-01T01:56:17;-5.82;93.37
68804;SHT31;55787;52.678;13.314;2023-03-01T01:58:45;-5.82;93.22
68804;SHT31;55787;52.678;13.314;2023-03-01T02:01:13;-5.90;93.30
68804;SHT31;55787;52.678;13.314;2023-03-01T02:03:42;-5.90;93.53
68804;SHT31;55787;52.678;13.314;2023-03-01T02:08:38;-5.86;93.36
68804;SHT31;55787;52.678;13.314;2023-03-01T02:11:06;-5.90;93.37
68804;SHT31;55787;52.678;13.314;2023-03-01T02:13:33;-5.92;93.55
68804;SHT31;55787;52.678;13.314;2023-03-01T02:16:05;-5.93;93.57
68804;SHT31;55787;52.678;13.314;2023-03-01T02:18:34;-5.93;93.56
68804;SHT31;55787;52.678;13.314;2023-03-01T02:23:53;-5.93;93.72
68804;SHT31;55787;52.678;13.314;2023-03-01T02:26:42;-5.93;93.95
68804;SHT31;55787;52.678;13.314;2023-03-01T02:29:12;-5.95;93.75
68804;SHT31;55787;52.678;13.314;2023-03-01T02:31:38;-5.96;93.87
68804;SHT31;55787;52.678;13.314;2023-03-01T02:34:21;-5.95;93.90
68804;SHT31;55787;52.678;13.314;2023-03-01T02:36:53;-5.95;94.03
68804;SHT31;55787;52.678;13.314;2023-03-01T02:39:31;-5.96;93.99
68804;SHT31;55787;52.678;13.314;2023-03-01T02:42:01;-5.98;93.96
68804;SHT31;55787;52.678;13.314;2023-03-01T02:44:28;-6.00;94.60
68804;SHT31;55787;52.678;13.314;2023-03-01T02:46:56;-5.93;95.39
68804;SHT31;55787;52.678;13.314;2023-03-01T02:49:26;-5.90;95.59
68804;SHT31;55787;52.678;13.314;2023-03-01T02:55:03;-5.81;95.44
68804;SHT31;55787;52.678;13.314;2023-03-01T02:57:32;-5.86;95.10
68804;SHT31;55787;52.678;13.314;2023-03-01T03:00:06;-5.90;95.21
68804;SHT31;55787;52.678;13.314;2023-03-01T03:02:34;-5.98;95.06
68804;SHT31;55787;52.678;13.314;2023-03-01T03:05:10;-6.00;95.15
68804;SHT31;55787;52.678;13.314;2023-03-01T03:07:39;-6.02;95.01
68804;SHT31;55787;52.678;13.314;2023-03-01T03:10:13;-6.06;94.86
68804;SHT31;55787;52.678;13.314;2023-03-01T03:12:40;-6.10;94.98
68804;SHT31;55787;52.678;13.314;2023-03-01T03:15:09;-6.11;95.03
68804;SHT31;55787;52.678;13.314;2023-03-01T03:17:37;-6.16;94.96
68804;SHT31;55787;52.678;13.314;2023-03-01T03:20:06;-6.14;95.42
68804;SHT31;55787;52.678;13.314;2023-03-01T03:22:40;-6.16;95.24
68804;SHT31;55787;52.678;13.314;2023-03-01T03:25:07;-6.13;95.32
68804;SHT31;55787;52.678;13.314;2023-03-01T03:27:42;-6.14;95.06
68804;SHT31;55787;52.678;13.314;2023-03-01T03:30:12;-6.17;94.99
68804;SHT31;55787;52.678;13.314;2023-03-01T03:32:43;-6.21;94.80
68804;SHT31;55787;52.678;13.314;2023-03-01T03:35:25;-6.23;94.82
68804;SHT31;55787;52.678;13.314;2023-03-01T03:37:52;-6.24;94.82
68804;SHT31;55787;52.678;13.314;2023-03-01T03:40:39;-6.27;94.92
68804;SHT31;55787;52.678;13.314;2023-03-01T03:43:11;-6.27;94.89
68804;SHT31;55787;52.678;13.314;2023-03-01T03:45:38;-6.30;94.85
68804;SHT31;55787;52.678;13.314;2023-03-01T03:48:07;-6.34;94.87
68804;SHT31;55787;52.678;13.314;2023-03-01T03:50:34;-6.34;94.88
68804;SHT31;55787;52.678;13.314;2023-03-01T03:53:01;-6.36;94.82
68804;SHT31;55787;52.678;13.314;2023-03-01T03:55:28;-6.37;94.69
68804;SHT31;55787;52.678;13.314;2023-03-01T03:57:58;-6.41;94.66
68804;SHT31;55787;52.678;13.314;2023-03-01T04:00:28;-6.42;94.60
68804;SHT31;55787;52.678;13.314;2023-03-01T04:02:54;-6.42;94.74
68804;SHT31;55787;52.678;13.314;2023-03-01T04:05:23;-6.47;94.80
68804;SHT31;55787;52.678;13.314;2023-03-01T04:07:49;-6.44;94.88
68804;SHT31;55787;52.678;13.314;2023-03-01T04:10:30;-6.44;95.00
68804;SHT31;55787;52.678;13.314;2023-03-01T04:12:57;-6.44;94.95
68804;SHT31;55787;52.678;13.314;2023-03-01T04:15:27;-6.42;94.91
68804;SHT31;55787;52.678;13.314;2023-03-01T04:17:54;-6.42;94.81
68804;SHT31;55787;52.678;13.314;2023-03-01T04:20:24;-6.48;94.92
68804;SHT31;55787;52.678;13.314;2023-03-01T04:22:56;-6.50;94.91
68804;SHT31;55787;52.678;13.314;2023-03-01T04:25:26;-6.50;94.97
68804;SHT31;55787;52.678;13.314;2023-03-01T04:27:53;-6.50;94.93
68804;SHT31;55787;52.678;13.314;2023-03-01T04:30:19;-6.52;94.87
68804;SHT31;55787;52.678;13.314;2023-03-01T04:32:46;-6.51;94.99
68804;SHT31;55787;52.678;13.314;2023-03-01T04:35:13;-6.51;94.88
68804;SHT31;55787;52.678;13.314;2023-03-01T04:37:40;-6.54;94.81
68804;SHT31;55787;52.678;13.314;2023-03-01T04:40:08;-6.54;94.87
68804;SHT31;55787;52.678;13.314;2023-03-01T04:42:43;-6.54;94.83
68804;SHT31;55787;52.678;13.314;2023-03-01T04:45:11;-6.54;95.04
68804;SHT31;55787;52.678;13.314;2023-03-01T04:47:41;-6.52;95.10
68804;SHT31;55787;52.678;13.314;2023-03-01T04:50:10;-6.55;95.12
68804;SHT31;55787;52.678;13.314;2023-03-01T04:52:37;-6.57;95.14
68804;SHT31;55787;52.678;13.314;2023-03-01T04:55:05;-6.58;95.12
68804;SHT31;55787;52.678;13.314;2023-03-01T04:57:32;-6.58;95.14
68804;SHT31;55787;52.678;13.314;2023-03-01T04:59:59;-6.58;95.18
68804;SHT31;55787;52.678;13.314;2023-03-01T05:02:26;-6.60;95.18
68804;SHT31;55787;52.678;13.314;2023-03-01T05:04:52;-6.64;95.26
68804;SHT31;55787;52.678;13.314;2023-03-01T05:07:24;-6.62;95.31
68804;SHT31;55787;52.678;13.314;2023-03-01T05:10:05;-6.62;95.34
68804;SHT31;55787;52.678;13.314;2023-03-01T05:12:32;-6.65;95.32
68804;SHT31;55787;52.678;13.314;2023-03-01T05:15:00;-6.65;95.25
68804;SHT31;55787;52.678;13.314;2023-03-01T05:17:26;-6.68;95.27
68804;SHT31;55787;52.678;13.314;2023-03-01T05:19:54;-6.71;95.35
68804;SHT31;55787;52.678;13.314;2023-03-01T05:22:23;-6.71;95.48
68804;SHT31;55787;52.678;13.314;2023-03-01T05:24:50;-6.69;95.57
68804;SHT31;55787;52.678;13.314;2023-03-01T05:27:18;-6.69;95.53
68804;SHT31;55787;52.678;13.314;2023-03-01T05:29:48;-6.77;95.37
68804;SHT31;55787;52.678;13.314;2023-03-01T05:32:15;-6.75;95.52
68804;SHT31;55787;52.678;13.314;2023-03-01T05:34:43;-6.75;95.57
68804;SHT31;55787;52.678;13.314;2023-03-01T05:37:13;-6.75;95.54
68804;SHT31;55787;52.678;13.314;2023-03-01T05:39:42;-6.74;95.34
68804;SHT31;55787;52.678;13.314;2023-03-01T05:42:10;-6.72;96.22
68804;SHT31;55787;52.678;13.314;2023-03-01T05:44:38;-6.74;95.96
68804;SHT31;55787;52.678;13.314;2023-03-01T05:47:06;-6.77;95.91
68804;SHT31;55787;52.678;13.314;2023-03-01T05:49:34;-6.78;95.99
68804;SHT31;55787;52.678;13.314;2023-03-01T05:52:03;-6.78;95.94
68804;SHT31;55787;52.678;13.314;2023-03-01T05:54:31;-6.75;95.94
68804;SHT31;55787;52.678;13.314;2023-03-01T05:56:58;-6.78;95.79
68804;SHT31;55787;52.678;13.314;2023-03-01T05:59:25;-6.77;95.94
68804;SHT31;55787;52.678;13.314;2023-03-01T06:01:51;-6.69;96.66
68804;SHT31;55787;52.678;13.314;2023-03-01T06:04:18;-6.68;96.77
68804;SHT31;55787;52.678;13.314;2023-03-01T06:06:45;-6.61;96.53
68804;SHT31;55787;52.678;13.314;2023-03-01T06:09:11;-6.57;96.24
68804;SHT31;55787;52.678;13.314;2023-03-01T06:11:38;-6.52;96.17
68804;SHT31;55787;52.678;13.314;2023-03-01T06:14:05;-6.51;96.05
68804;SHT31;55787;52.678;13.314;2023-03-01T06:16:33;-6.48;95.87
68804;SHT31;55787;52.678;13.314;2023-03-01T06:18:59;-6.44;95.78
68804;SHT31;55787;52.678;13.314;2023-03-01T06:21:26;-6.37;95.80
68804;SHT31;55787;52.678;13.314;2023-03-01T06:23:53;-6.20;95.64
68804;SHT31;55787;52.678;13.314;2023-03-01T06:26:19;-6.09;95.13
68804;SHT31;55787;52.678;13.314;2023-03-01T06:28:46;-6.02;94.84
68804;SHT31;55787;52.678;13.314;2023-03-01T06:31:13;-5.93;94.68
68804;SHT31;55787;52.678;13.314;2023-03-01T06:33:40;-5.85;94.45
68804;SHT31;55787;52.678;13.314;2023-03-01T06:36:07;-5.69;94.61
68804;SHT31;55787;52.678;13.314;2023-03-01T06:38:34;-5.57;94.54
68804;SHT31;55787;52.678;13.314;2023-03-01T06:41:00;-5.44;94.52
68804;SHT31;55787;52.678;13.314;2023-03-01T06:43:28;-5.28;94.75
68804;SHT31;55787;52.678;13.314;2023-03-01T06:45:55;-5.07;94.54
68804;SHT31;55787;52.678;13.314;2023-03-01T06:48:21;-4.75;93.70
68804;SHT31;55787;52.678;13.314;2023-03-01T06:50:48;-4.49;92.53
68804;SHT31;55787;52.678;13.314;2023-03-01T06:53:15;-4.22;91.78
68804;SHT31;55787;52.678;13.314;2023-03-01T06:55:42;-3.77;90.64
68804;SHT31;55787;52.678;13.314;2023-03-01T06:58:09;-3.62;89.19
68804;SHT31;55787;52.678;13.314;2023-03-01T07:00:35;-3.59;89.37
68804;SHT31;55787;52.678;13.314;2023-03-01T07:03:02;-3.65;89.25
68804;SHT31;55787;52.678;13.314;2023-03-01T07:05:30;-3.65;89.50
68804;SHT31;55787;52.678;13.314;2023-03-01T07:07:57;-3.59;89.54
68804;SHT31;55787;52.678;13.314;2023-03-01T07:10:24;-3.49;89.01
68804;SHT31;55787;52.678;13.314;2023-03-01T07:12:54;-3.27;88.91
68804;SHT31;55787;52.678;13.314;2023-03-01T07:15:21;-2.90;88.00
68804;SHT31;55787;52.678;13.314;2023-03-01T07:17:48;-2.52;86.76
68804;SHT31;55787;52.678;13.314;2023-03-01T07:20:19;-2.16;85.93
68804;SHT31;55787;52.678;13.314;2023-03-01T07:22:48;-1.99;85.31
68804;SHT31;55787;52.678;13.314;2023-03-01T07:25:15;-1.87;85.50
68804;SHT31;55787;52.678;13.314;2023-03-01T07:27:42;-1.63;85.26
68804;SHT31;55787;52.678;13.314;2023-03-01T07:30:09;-1.16;83.89
68804;SHT31;55787;52.678;13.314;2023-03-01T07:32:36;-0.68;82.22
68804;SHT31;55787;52.678;13.314;2023-03-01T07:35:03;-0.26;80.42
68804;SHT31;55787;52.678;13.314;2023-03-01T07:37:29;-0.03;79.32
68804;SHT31;55787;52.678;13.314;2023-03-01T07:39:56;0.17;78.64
68804;SHT31;55787;52.678;13.314;2023-03-01T07:42:23;0.37;77.33
68804;SHT31;55787;52.678;13.314;2023-03-01T07:44:49;0.90;77.11
68804;SHT31;55787;52.678;13.314;2023-03-01T07:47:16;1.13;75.56
68804;SHT31;55787;52.678;13.314;2023-03-01T07:49:43;1.40;74.89
68804;SHT31;55787;52.678;13.314;2023-03-01T07:52:11;1.55;74.33
68804;SHT31;55787;52.678;13.314;2023-03-01T07:54:38;1.87;73.85
68804;SHT31;55787;52.678;13.314;2023-03-01T07:57:05;2.24;71.92
68804;SHT31;55787;52.678;13.314;2023-03-01T07:59:31;1.83;72.64
68804;SHT31;55787;52.678;13.314;2023-03-01T08:01:58;1.45;73.99
68804;SHT31;55787;52.678;13.314;2023-03-01T08:04:25;1.16;75.57
68804;SHT31;55787;52.678;13.314;2023-03-01T08:06:54;0.90;76.66
68804;SHT31;55787;52.678;13.314;2023-03-01T08:09:21;0.72;78.12
68804;SHT31;55787;52.678;13.314;2023-03-01T08:11:48;0.60;77.54
68804;SHT31;55787;52.678;13.314;2023-03-01T08:14:14;0.52;78.95
68804;SHT31;55787;52.678;13.314;2023-03-01T08:16:41;0.53;79.45
68804;SHT31;55787;52.678;13.314;2023-03-01T08:19:11;0.68;79.39
68804;SHT31;55787;52.678;13.314;2023-03-01T08:21:38;0.83;79.08
68804;SHT31;55787;52.678;13.314;2023-03-01T08:24:05;0.87;79.93
68804;SHT31;55787;52.678;13.314;2023-03-01T08:26:33;1.00;79.43
68804;SHT31;55787;52.678;13.314;2023-03-01T08:29:00;1.14;78.79
68804;SHT31;55787;52.678;13.314;2023-03-01T08:31:36;1.20;77.04
68804;SHT31;55787;52.678;13.314;2023-03-01T08:34:09;1.26;76.93
68804;SHT31;55787;52.678;13.314;2023-03-01T08:36:39;1.45;74.81
68804;SHT31;55787;52.678;13.314;2023-03-01T08:39:08;1.55;73.53
68804;SHT31;55787;52.678;13.314;2023-03-01T08:41:35;1.75;73.89
68804;SHT31;55787;52.678;13.314;2023-03-01T08:44:02;2.26;72.67
68804;SHT31;55787;52.678;13.314;2023-03-01T08:46:38;4.09;68.71
68804;SHT31;55787;52.678;13.314;2023-03-01T08:49:05;6.61;60.60
68804;SHT31;55787;52.678;13.314;2023-03-01T08:51:35;8.65;51.65
68804;SHT31;55787;52.678;13.314;2023-03-01T08:54:09;10.30;46.04
68804;SHT31;55787;52.678;13.314;2023-03-01T08:56:37;11.72;44.18
68804;SHT31;55787;52.678;13.314;2023-03-01T08:59:03;12.44;41.79
68804;SHT31;55787;52.678;13.314;2023-03-01T09:01:30;12.03;40.65
68804;SHT31;55787;52.678;13.314;2023-03-01T09:03:58;13.01;39.18
68804;SHT31;55787;52.678;13.314;2023-03-01T09:06:24;12.98;39.22
68804;SHT31;55787;52.678;13.314;2023-03-01T09:08:51;11.53;40.17
68804;SHT31;55787;52.678;13.314;2023-03-01T09:11:21;9.89;44.68
68804;SHT31;55787;52.678;13.314;2023-03-01T09:13:49;8.44;47.37
68804;SHT31;55787;52.678;13.314;2023-03-01T09:16:18;7.43;50.63
68804;SHT31;55787;52.678;13.314;2023-03-01T09:18:49;6.86;52.26
68804;SHT31;55787;52.678;13.314;2023-03-01T09:21:17;6.71;52.21
68804;SHT31;55787;52.678;13.314;2023-03-01T09:23:56;6.81;53.14
68804;SHT31;55787;52.678;13.314;2023-03-01T09:26:24;7.44;51.12
68804;SHT31;55787;52.678;13.314;2023-03-01T09:28:54;9.76;46.60
68804;SHT31;55787;52.678;13.314;2023-03-01T09:31:22;11.79;41.62
68804;SHT31;55787;52.678;13.314;2023-03-01T09:33:51;13.59;36.84
68804;SHT31;55787;52.678;13.314;2023-03-01T09:36:22;15.07;35.41
68804;SHT31;55787;52.678;13.314;2023-03-01T09:38:49;15.87;32.49
68804;SHT31;55787;52.678;13.314;2023-03-01T09:43:45;16.43;31.46
68804;SHT31;55787;52.678;13.314;2023-03-01T09:46:14;18.00;30.93
68804;SHT31;55787;52.678;13.314;2023-03-01T09:48:54;18.98;27.87
68804;SHT31;55787;52.678;13.314;2023-03-01T09:51:29;19.19;27.90
68804;SHT31;55787;52.678;13.314;2023-03-01T09:53:56;18.95;27.79
68804;SHT31;55787;52.678;13.314;2023-03-01T09:56:39;19.02;27.03
68804;SHT31;55787;52.678;13.314;2023-03-01T10:02:16;19.74;26.99
68804;SHT31;55787;52.678;13.314;2023-03-01T10:04:48;19.75;27.15
68804;SHT31;55787;52.678;13.314;2023-03-01T10:07:31;19.15;26.05
68804;SHT31;55787;52.678;13.314;2023-03-01T10:09:59;17.94;27.84
68804;SHT31;55787;52.678;13.314;2023-03-01T10:12:33;18.33;29.21
68804;SHT31;55787;52.678;13.314;2023-03-01T10:17:56;18.82;27.09
68804;SHT31;55787;52.678;13.314;2023-03-01T10:20:33;19.78;27.16
68804;SHT31;55787;52.678;13.314;2023-03-01T10:23:02;19.90;25.33
68804;SHT31;55787;52.678;13.314;2023-03-01T10:25:42;19.40;27.07
68804;SHT31;55787;52.678;13.314;2023-03-01T10:28:17;20.57;25.13
68804;SHT31;55787;52.678;13.314;2023-03-01T10:30:46;19.13;26.55
68804;SHT31;55787;52.678;13.314;2023-03-01T10:35:51;19.41;25.64
68804;SHT31;55787;52.678;13.314;2023-03-01T10:38:18;19.20;25.91
68804;SHT31;55787;52.678;13.314;2023-03-01T10:40:58;18.45;26.17
68804;SHT31;55787;52.678;13.314;2023-03-01T10:43:29;18.38;27.33
68804;SHT31;55787;52.678;13.314;2023-03-01T10:45:57;17.53;27.11
68804;SHT31;55787;52.678;13.314;2023-03-01T10:48:26;15.75;30.74
68804;SHT31;55787;52.678;13.314;2023-03-01T10:53:32;13.61;33.65
68804;SHT31;55787;52.678;13.314;2023-03-01T10:56:06;12.71;34.23
68804;SHT31;55787;52.678;13.314;2023-03-01T10:58:34;12.33;34.48
68804;SHT31;55787;52.678;13.314;2023-03-01T11:01:46;12.13;34.58
68804;SHT31;55787;52.678;13.314;2023-03-01T11:06:37;11.37;34.43
68804;SHT31;55787;52.678;13.314;2023-03-01T11:09:21;10.89;36.21
68804;SHT31;55787;52.678;13.314;2023-03-01T11:11:53;10.93;37.02
68804;SHT31;55787;52.678;13.314;2023-03-01T11:14:22;10.82;37.03
68804;SHT31;55787;52.678;13.314;2023-03-01T11:17:14;10.56;36.84
68804;SHT31;55787;52.678;13.314;2023-03-01T11:19:41;10.65;37.06
68804;SHT31;55787;52.678;13.314;2023-03-01T11:22:21;10.58;38.28
68804;SHT31;55787;52.678;13.314;2023-03-01T11:24:53;10.24;38.02
68804;SHT31;55787;52.678;13.314;2023-03-01T11:27:40;10.05;40.66
68804;SHT31;55787;52.678;13.314;2023-03-01T11:32:46;9.73;37.18
68804;SHT31;55787;52.678;13.314;2023-03-01T11:35:21;9.66;38.76
68804;SHT31;55787;52.678;13.314;2023-03-01T11:38:16;10.20;35.96
68804;SHT31;55787;52.678;13.314;2023-03-01T11:43:26;11.44;34.58
68804;SHT31;55787;52.678;13.314;2023-03-01T11:46:32;12.47;33.74
68804;SHT31;55787;52.678;13.314;2023-03-01T12:03:26;15.32;31.23
68804;SHT31;55787;52.678;13.314;2023-03-01T12:06:03;15.50;28.98
68804;SHT31;55787;52.678;13.314;2023-03-01T12:08:57;16.11;29.67
68804;SHT31;55787;52.678;13.314;2023-03-01T12:17:21;15.20;30.05
68804;SHT31;55787;52.678;13.314;2023-03-01T12:41:08;14.78;28.74
68804;SHT31;55787;52.678;13.314;2023-03-01T12:46:47;14.91;29.28
68804;SHT31;55787;52.678;13.314;2023-03-01T12:49:16;15.02;30.31
68804;SHT31;55787;52.678;13.314;2023-03-01T12:51:59;15.24;31.08
68804;SHT31;55787;52.678;13.314;2023-03-01T12:54:33;15.30;29.27
68804;SHT31;55787;52.678;13.314;2023-03-01T12:57:54;15.14;30.00
68804;SHT31;55787;52.678;13.314;2023-03-01T13:05:22;15.37;30.14
68804;SHT31;55787;52.678;13.314;2023-03-01T13:11:04;14.57;30.34
68804;SHT31;55787;52.678;13.314;2023-03-01T13:13:31;14.17;29.58
68804;SHT31;55787;52.678;13.314;2023-03-01T13:19:14;14.81;29.28
68804;SHT31;55787;52.678;13.314;2023-03-01T13:21:43;14.65;31.05
68804;SHT31;55787;52.678;13.314;2023-03-01T13:29:50;14.92;29.78
68804;SHT31;55787;52.678;13.314;2023-03-01T13:32:25;15.16;30.47
68804;SHT31;55787;52.678;13.314;2023-03-01T13:37:44;15.58;30.95
68804;SHT31;55787;52.678;13.314;2023-03-01T13:42:52;16.13;30.22
68804;SHT31;55787;52.678;13.314;2023-03-01T13:45:41;16.05;30.60
68804;SHT31;55787;52.678;13.314;2023-03-01T13:48:11;15.72;29.47
68804;SHT31;55787;52.678;13.314;2023-03-01T13:51:02;15.95;29.78
68804;SHT31;55787;52.678;13.314;2023-03-01T13:53:33;15.90;30.84
68804;SHT31;55787;52.678;13.314;2023-03-01T13:56:07;15.70;30.95
68804;SHT31;55787;52.678;13.314;2023-03-01T13:58:47;15.77;32.32
68804;SHT31;55787;52.678;13.314;2023-03-01T14:01:34;15.82;31.71
68804;SHT31;55787;52.678;13.314;2023-03-01T14:04:03;16.21;31.19
68804;SHT31;55787;52.678;13.314;2023-03-01T14:06:32;16.53;31.21
68804;SHT31;55787;52.678;13.314;2023-03-01T14:09:10;16.15;31.06
68804;SHT31;55787;52.678;13.314;2023-03-01T14:12:09;16.04;30.95
68804;SHT31;55787;52.678;13.314;2023-03-01T14:15:01;16.13;30.82
68804;SHT31;55787;52.678;13.314;2023-03-01T14:17:45;16.25;30.69
68804;SHT31;55787;52.678;13.314;2023-03-01T14:20:25;16.15;30.86
68804;SHT31;55787;52.678;13.314;2023-03-01T14:22:55;16.12;30.47
68804;SHT31;55787;52.678;13.314;2023-03-01T14:25:31;15.55;31.17
68804;SHT31;55787;52.678;13.314;2023-03-01T14:30:48;15.63;33.18
68804;SHT31;55787;52.678;13.314;2023-03-01T14:33:36;15.97;31.71
68804;SHT31;55787;52.678;13.314;2023-03-01T14:36:11;15.50;32.62
68804;SHT31;55787;52.678;13.314;2023-03-01T14:38:45;15.26;33.56
68804;SHT31;55787;52.678;13.314;2023-03-01T14:41:20;15.33;32.78
68804;SHT31;55787;52.678;13.314;2023-03-01T14:43:50;15.53;32.77
68804;SHT31;55787;52.678;13.314;2023-03-01T14:46:24;15.30;32.84
68804;SHT31;55787;52.678;13.314;2023-03-01T14:48:55;15.27;33.97
68804;SHT31;55787;52.678;13.314;2023-03-01T14:51:22;15.27;33.69
68804;SHT31;55787;52.678;13.314;2023-03-01T14:53:50;15.18;33.21
68804;SHT31;55787;52.678;13.314;2023-03-01T14:56:17;15.04;33.88
68804;SHT31;55787;52.678;13.314;2023-03-01T14:58:45;15.23;33.93
68804;SHT31;55787;52.678;13.314;2023-03-01T15:01:15;14.85;34.09
68804;SHT31;55787;52.678;13.314;2023-03-01T15:03:49;15.13;33.85
68804;SHT31;55787;52.678;13.314;2023-03-01T15:06:19;14.98;34.32
68804;SHT31;55787;52.678;13.314;2023-03-01T15:08:49;15.12;34.14
68804;SHT31;55787;52.678;13.314;2023-03-01T15:13:45;14.62;35.45
68804;SHT31;55787;52.678;13.314;2023-03-01T15:16:21;14.07;35.63
68804;SHT31;55787;52.678;13.314;2023-03-01T15:18:52;13.42;36.21
68804;SHT31;55787;52.678;13.314;2023-03-01T15:21:26;12.64;37.48
68804;SHT31;55787;52.678;13.314;2023-03-01T15:23:57;12.15;39.26
68804;SHT31;55787;52.678;13.314;2023-03-01T15:26:30;11.67;40.31
68804;SHT31;55787;52.678;13.314;2023-03-01T15:28:59;11.79;40.68
68804;SHT31;55787;52.678;13.314;2023-03-01T15:31:33;11.82;40.93
68804;SHT31;55787;52.678;13.314;2023-03-01T15:34:31;11.77;41.07
68804;SHT31;55787;52.678;13.314;2023-03-01T15:37:01;11.14;42.52
68804;SHT31;55787;52.678;13.314;2023-03-01T15:41:57;10.31;44.45
68804;SHT31;55787;52.678;13.314;2023-03-01T15:44:29;9.90;45.70
68804;SHT31;55787;52.678;13.314;2023-03-01T15:47:29;9.55;47.02
68804;SHT31;55787;52.678;13.314;2023-03-01T15:49:57;9.29;47.71
68804;SHT31;55787;52.678;13.314;2023-03-01T15:52:33;9.16;48.01
68804;SHT31;55787;52.678;13.314;2023-03-01T15:55:14;8.91;49.58
68804;SHT31;55787;52.678;13.314;2023-03-01T15:57:42;8.63;49.62
68804;SHT31;55787;52.678;13.314;2023-03-01T16:00:11;8.40;50.38
68804;SHT31;55787;52.678;13.314;2023-03-01T16:02:41;8.22;51.43
68804;SHT31;55787;52.678;13.314;2023-03-01T16:07:43;7.96;51.76
68804;SHT31;55787;52.678;13.314;2023-03-01T16:10:10;7.84;51.86
68804;SHT31;55787;52.678;13.314;2023-03-01T16:12:37;7.70;53.98
68804;SHT31;55787;52.678;13.314;2023-03-01T16:15:17;7.48;55.09
68804;SHT31;55787;52.678;13.314;2023-03-01T16:17:44;7.31;56.26
68804;SHT31;55787;52.678;13.314;2023-03-01T16:20:12;7.10;57.35
68804;SHT31;55787;52.678;13.314;2023-03-01T16:22:53;6.88;58.08
68804;SHT31;55787;52.678;13.314;2023-03-01T16:25:20;6.69;58.39
68804;SHT31;55787;52.678;13.314;2023-03-01T16:27:50;6.52;58.88
68804;SHT31;55787;52.678;13.314;2023-03-01T16:30:20;6.30;59.73
68804;SHT31;55787;52.678;13.314;2023-03-01T16:32:47;6.13;60.34
68804;SHT31;55787;52.678;13.314;2023-03-01T16:35:17;5.93;60.87
68804;SHT31;55787;52.678;13.314;2023-03-01T16:37:44;5.76;61.70
68804;SHT31;55787;52.678;13.314;2023-03-01T16:40:26;5.55;62.30
68804;SHT31;55787;52.678;13.314;2023-03-01T16:42:54;5.38;62.93
68804;SHT31;55787;52.678;13.314;2023-03-01T16:45:32;5.21;63.16
68804;SHT31;55787;52.678;13.314;2023-03-01T16:48:02;5.07;63.69
68804;SHT31;55787;52.678;13.314;2023-03-01T16:50:29;4.88;64.27
68804;SHT31;55787;52.678;13.314;2023-03-01T16:52:55;4.73;65.04
68804;SHT31;55787;52.678;13.314;2023-03-01T16:55:22;4.59;65.40
68804;SHT31;55787;52.678;13.314;2023-03-01T16:57:49;4.42;65.93
68804;SHT31;55787;52.678;13.314;2023-03-01T17:00:17;4.28;66.57
68804;SHT31;55787;52.678;13.314;2023-03-01T17:02:45;4.12;66.83
68804;SHT31;55787;52.678;13.314;2023-03-01T17:05:12;3.98;66.72
68804;SHT31;55787;52.678;13.314;2023-03-01T17:07:39;3.82;67.55
68804;SHT31;55787;52.678;13.314;2023-03-01T17:10:10;3.69;67.81
68804;SHT31;55787;52.678;13.314;2023-03-01T17:12:37;3.57;68.03
68804;SHT31;55787;52.678;13.314;2023-03-01T17:15:06;3.43;68.39
68804;SHT31;55787;52.678;13.314;2023-03-01T17:17:33;3.29;69.11
68804;SHT31;55787;52.678;13.314;2023-03-01T17:20:01;3.18;69.91
68804;SHT31;55787;52.678;13.314;2023-03-01T17:22:30;3.10;70.28
68804;SHT31;55787;52.678;13.314;2023-03-01T17:24:57;2.99;70.29
68804;SHT31;55787;52.678;13.314;2023-03-01T17:27:23;2.85;70.91